Latest Coastal Weather Observations for Groote Eylandt Airport

IDD60701

Issued at 7:51 am CST Tuesday 27 September 2016 (issued every 10 minutes, with the page automatically refreshed every 10 minutes)

About coastal observations | Map of coastal stations | Coastal observations for NT | Marine services | Other Formats
Station Details ID: 014518 Name: GROOTE EYLANDT AIRPORT Lat: -13.97 Lon: 136.46 Height: 13.7 m
Data from the previous 72 hours. | See also: Recent months at Groote Eylandt Airport
Date/Time
CST
Temp
°C
Wind Pressure Rain since
9am
mm
Weather Cloud Vis
km
Sea
Height
m
Swell
Dir  Spd
kts
Gust
kts
hPa Trend Height
m
Period
s
Dir
27/07:30am 23.9 ENE 5 7 1011.7 - 0.0 - - 10 - - - -
27/07:24am 23.5 ENE 5 7 1011.5 - 0.0 - Partly cloudy 10 - - - -
27/07:00am 21.4 ESE 4 5 1011.0 - 0.0 - Cloudy 10 - - - -
27/06:49am 20.7 ESE 2 4 1010.8 - 0.0 - Cloudy 10 - - - -
27/06:30am 20.3 CALM 0 0 1010.4 - 0.0 - Cloudy 0.5 - - - -
27/06:00am 20.1 CALM 0 0 1009.8 - 0.0 - Cloudy 0.2 - - - -
27/05:30am 20.2 CALM 0 0 1009.5 - 0.0 - Cloudy 0.2 - - - -
27/05:00am 20.3 CALM 0 0 1009.2 - 0.0 - Cloudy 0.7 - - - -
27/04:30am 20.8 CALM 0 0 1009.0 - 0.0 - Cloudy 0.6 - - - -
27/04:00am 20.9 CALM 0 0 1008.8 - 0.0 - Cloudy 0.4 - - - -
27/03:30am 21.0 CALM 0 0 1008.7 - 0.0 - Cloudy 0.4 - - - -
27/03:09am 20.8 CALM 0 0 1008.7 - 0.0 - Partly cloudy 4 - - - -
27/03:08am 20.8 CALM 0 0 1008.7 - 0.0 - Partly cloudy 6 - - - -
27/03:00am 20.9 CALM 0 0 1008.7 - 0.0 - Mostly clear 10 - - - -
27/02:30am 21.6 CALM 0 0 1008.9 - 0.0 - - 10 - - - -
27/02:00am 21.9 ESE 3 4 1009.2 - 0.0 - - 10 - - - -
27/01:30am 22.0 ESE 3 3 1009.9 - 0.0 - - 10 - - - -
27/01:00am 22.5 CALM 0 0 1010.4 - 0.0 - - 10 - - - -
27/12:30am 23.0 ESE 2 4 1010.7 - 0.0 - - 10 - - - -
27/12:00am 23.2 CALM 0 0 1010.9 - 0.0 - - 10 - - - -
 
Date/Time
CST
Temp
°C
Wind Pressure Rain since
9am
mm
Weather Cloud Vis
km
Sea
Height
m
Swell
Dir  Spd
kts
Gust
kts
hPa Trend Height
m
Period
s
Dir
26/11:30pm 23.7 CALM 0 0 1011.1 - 0.0 - - 10 - - - -
26/11:00pm 24.3 CALM 0 0 1011.5 - 0.0 - - 10 - - - -
26/10:30pm 24.6 CALM 0 0 1011.4 - 0.0 - - 10 - - - -
26/10:00pm 25.2 ESE 4 4 1011.3 - 0.0 - - 10 - - - -
26/09:30pm 25.4 SE 3 4 1011.2 - 0.0 - - 10 - - - -
26/09:00pm 25.6 SSE 3 4 1011.1 - 0.0 - - 10 - - - -
26/08:30pm 26.5 SSE 2 4 1010.7 - 0.0 - - 10 - - - -
26/08:00pm 27.0 S 3 4 1010.6 - 0.0 - - 10 - - - -
26/07:30pm 27.4 S 3 5 1010.4 - 0.0 - - 10 - - - -
26/07:00pm 27.8 SSE 4 7 1009.9 - 0.0 - - 10 - - - -
26/06:30pm 28.4 S 5 8 1009.4 - 0.0 - - 10 - - - -
26/06:00pm 29.2 SSW 5 8 1009.0 - 0.0 - - 10 - - - -
26/05:30pm 29.6 SSW 6 9 1008.8 - 0.0 - - 10 - - - -
26/05:00pm 30.0 SW 7 12 1008.5 - 0.0 - - 10 - - - -
26/04:30pm 32.5 WNW 4 7 1008.1 - 0.0 - - 10 - - - -
26/04:00pm 31.9 WNW 7 9 1008.2 - 0.0 - - 10 - - - -
26/03:30pm 31.2 WNW 9 11 1008.5 - 0.0 - - 10 - - - -
26/03:00pm 33.7 NW 5 9 1008.6 - 0.0 - - 10 - - - -
26/02:30pm 34.2 N 5 9 1008.9 - 0.0 - - 10 - - - -
26/02:00pm 31.5 NNW 5 8 1009.2 - 0.0 - Partly cloudy 10 - - - -
26/01:30pm 31.6 W 6 9 1009.7 - 0.0 - - 10 - - - -
26/01:00pm 31.6 W 5 8 1010.0 - 0.0 - Partly cloudy 10 - - - -
26/12:30pm 30.4 WSW 6 9 1010.5 - 0.0 - Partly cloudy 10 - - - -
26/12:00pm 29.5 SW 7 11 1011.2 - 0.0 - Cloudy 10 - - - -
26/11:30am 29.7 WSW 6 11 1011.5 - 0.0 - Partly cloudy 10 - - - -
26/11:00am 30.3 WSW 8 11 1011.6 - 0.0 - Partly cloudy 10 - - - -
26/10:30am 31.6 E 6 10 1011.8 - 0.0 - Partly cloudy 10 - - - -
26/10:00am 30.9 E 7 11 1011.8 - 0.0 - Partly cloudy 10 - - - -
26/09:30am 30.4 E 6 9 1012.0 - 0.0 - Partly cloudy 10 - - - -
26/09:00am 29.2 NE 5 7 1011.9 - 0.0 - - 10 - - - -
26/08:30am 28.0 NE 8 11 1011.9 - 0.0 - Partly cloudy 10 - - - -
26/08:00am 26.6 ENE 5 7 1012.0 - 0.0 - Partly cloudy 10 - - - -
26/07:30am 24.6 CALM 0 3 1011.8 - 0.0 - Partly cloudy 10 - - - -
26/07:00am 23.5 E 5 7 1011.3 - 0.0 - Partly cloudy 10 - - - -
26/06:30am 22.2 E 4 5 1010.4 - 0.0 - Partly cloudy 10 - - - -
26/06:00am 21.6 ESE 2 3 1009.7 - 0.0 - Mostly clear 10 - - - -
26/05:30am 21.8 WSW 4 5 1009.4 - 0.0 - - 10 - - - -
26/05:00am 22.7 W 3 4 1008.9 - 0.0 - - 10 - - - -
26/04:30am 22.6 CALM 0 0 1008.5 - 0.0 - - 10 - - - -
26/04:00am 23.4 CALM 0 0 1008.3 - 0.0 - - 10 - - - -
26/03:30am 22.8 NNE 2 3 1008.4 - 0.0 - - 10 - - - -
26/03:00am 24.1 NNE 5 6 1008.2 - 0.0 - - 10 - - - -
26/02:30am 23.6 CALM 0 0 1008.3 - 0.0 - - 10 - - - -
26/02:00am 23.9 CALM 0 0 1008.5 - 0.0 - - 10 - - - -
26/01:30am 24.4 NNE 2 4 1009.0 - 0.0 - - 10 - - - -
26/01:00am 24.8 E 5 7 1009.1 - 0.0 - - 10 - - - -
26/12:30am 24.7 E 6 7 1009.5 - 0.0 - - 10 - - - -
26/12:00am 24.5 ENE 4 6 1009.9 - 0.0 - - 10 - - - -
 
Date/Time
CST
Temp
°C
Wind Pressure Rain since
9am
mm
Weather Cloud Vis
km
Sea
Height
m
Swell
Dir  Spd
kts
Gust
kts
hPa Trend Height
m
Period
s
Dir
25/11:30pm 25.0 NE 3 4 1010.1 - 0.0 - - 10 - - - -
25/11:00pm 25.1 CALM 0 3 1010.7 - 0.0 - - 10 - - - -
25/10:30pm 24.9 CALM 0 2 1010.9 - 0.0 - - 10 - - - -
25/10:00pm 25.6 ENE 2 4 1011.0 - 0.0 - - 10 - - - -
25/09:30pm 26.2 ENE 6 7 1010.8 - 0.0 - - 10 - - - -
25/09:00pm 26.2 E 4 6 1010.6 - 0.0 - - 10 - - - -
25/08:30pm 26.1 ESE 3 5 1010.2 - 0.0 - - 10 - - - -
25/08:00pm 27.2 ENE 5 6 1009.9 - 0.0 - - 10 - - - -
25/07:30pm 27.7 ENE 5 7 1009.7 - 0.0 - - 10 - - - -
25/07:00pm 28.1 NE 7 11 1009.4 - 0.0 - - 10 - - - -
25/06:30pm 29.1 ENE 8 10 1008.9 - 0.0 - - 10 - - - -
25/06:00pm 30.1 E 8 10 1008.4 - 0.0 - - 10 - - - -
25/05:30pm 31.1 SE 6 9 1008.0 - 0.0 - Partly cloudy 10 - - - -
25/05:00pm 31.7 SSW 6 8 1007.7 - 0.0 - Partly cloudy 10 - - - -
25/04:30pm 31.4 WSW 6 9 1007.6 - 0.0 - Partly cloudy 10 - - - -
25/04:00pm 31.5 WSW 6 10 1007.3 - 0.0 - - 10 - - - -
25/03:30pm 31.6 WSW 7 11 1007.2 - 0.0 - - 10 - - - -
25/03:00pm 31.4 W 7 11 1007.1 - 0.0 - - 10 - - - -
25/02:30pm 30.9 W 9 13 1007.3 - 0.0 - - 10 - - - -
25/02:00pm 31.2 WSW 7 11 1007.6 - 0.0 - - 10 - - - -
25/01:30pm 31.3 WNW 9 12 1007.6 - 0.0 - - 10 - - - -
25/01:00pm 31.5 WNW 9 13 1008.1 - 0.0 - - 10 - - - -
25/12:30pm 30.5 WNW 11 14 1008.6 - 0.0 - - 10 - - - -
25/12:00pm 30.1 WNW 11 15 1009.1 - 0.0 - - 10 - - - -
25/11:30am 30.9 NW 8 11 1009.5 - 0.0 - - 10 - - - -
25/11:00am 30.1 WNW 7 9 1009.8 - 0.0 - - 10 - - - -
25/10:30am 29.6 WNW 6 9 1010.0 - 0.0 - - 10 - - - -
25/10:00am 30.2 W 4 7 1010.1 - 0.0 - - 10 - - - -
25/09:30am 29.4 NNE 4 6 1010.4 - 0.0 - - 10 - - - -
25/09:00am 28.4 WNW 5 7 1010.4 - 0.0 - - 10 - - - -
25/08:30am 27.7 W 1 3 1010.4 - 0.0 - - 10 - - - -
25/08:00am 26.2 ESE 1 4 1009.9 - 0.0 - - 10 - - - -
25/07:30am 24.2 CALM 0 2 1009.8 - 0.0 - - 10 - - - -
25/07:00am 20.7 CALM 0 0 1009.2 - 0.0 - - 10 - - - -
25/06:30am 19.5 E 3 4 1008.8 - 0.0 - - 10 - - - -
25/06:00am 19.0 E 2 4 1008.4 - 0.0 - - 10 - - - -
25/05:30am 19.0 E 4 4 1007.8 - 0.0 - - 10 - - - -
25/05:00am 19.2 E 4 5 1007.6 - 0.0 - - 10 - - - -
25/04:30am 19.3 ESE 2 5 1007.5 - 0.0 - - 10 - - - -
25/04:00am 19.6 SE 3 3 1007.4 - 0.0 - - 10 - - - -
25/03:30am 20.0 SE 2 4 1007.3 - 0.0 - - 10 - - - -
25/03:00am 19.8 ESE 3 4 1007.2 - 0.0 - - 10 - - - -
25/02:30am 19.7 CALM 0 0 1007.5 - 0.0 - - 10 - - - -
25/02:00am 20.5 E 1 3 1007.9 - 0.0 - - 10 - - - -
25/01:30am 20.9 CALM 0 0 1008.1 - 0.0 - - 10 - - - -
25/01:00am 20.8 CALM 0 0 1008.2 - 0.0 - - 10 - - - -
25/12:30am 21.2 CALM 0 0 1008.4 - 0.0 - - 10 - - - -
25/12:00am 21.0 CALM 0 0 1008.8 - 0.0 - - 10 - - - -
 
Date/Time
CST
Temp
°C
Wind Pressure Rain since
9am
mm
Weather Cloud Vis
km
Sea
Height
m
Swell
Dir  Spd
kts
Gust
kts
hPa Trend Height
m
Period
s
Dir
24/11:30pm 21.8 E 3 5 1009.0 - 0.0 - - 10 - - - -
24/11:00pm 21.4 CALM 0 0 1009.4 - 0.0 - - 10 - - - -
24/10:30pm 21.8 CALM 0 0 1009.5 - 0.0 - - 10 - - - -
24/10:00pm 22.4 CALM 0 0 1009.5 - 0.0 - - 10 - - - -
24/09:30pm 22.6 E 3 4 1009.4 - 0.0 - - 10 - - - -
24/09:00pm 23.6 ESE 4 5 1009.1 - 0.0 - - 10 - - - -
24/08:30pm 24.1 ESE 3 4 1008.9 - 0.0 - - 10 - - - -
24/08:00pm 24.8 SE 3 4 1008.8 - 0.0 - - 10 - - - -
24/07:30pm 26.1 SSE 3 4 1008.6 - 0.0 - - 10 - - - -
24/07:00pm 26.4 CALM 0 0 1008.4 - 0.0 - - 10 - - - -
24/06:30pm 28.2 WSW 1 3 1008.0 - 0.0 - - 10 - - - -
24/06:00pm 29.3 W 4 5 1007.6 - 0.0 - - 10 - - - -
24/05:30pm 30.0 WNW 5 6 1007.4 - 0.0 - - 10 - - - -
24/05:00pm 30.2 WNW 6 11 1007.3 - 0.0 - - 10 - - - -
24/04:30pm 30.7 WSW 6 9 1007.1 - 0.0 - - 10 - - - -
24/04:00pm 30.9 WSW 7 9 1007.0 - 0.0 - - 10 - - - -
24/03:30pm 30.6 W 7 11 1007.1 - 0.0 - - 10 - - - -
24/03:00pm 31.0 WSW 7 11 1007.2 - 0.0 - - 10 - - - -
24/02:30pm 30.6 W 8 11 1007.6 - 0.0 - - 10 - - - -
24/02:00pm 31.2 W 8 13 1007.8 - 0.0 - - 10 - - - -
24/01:30pm 31.8 SW 7 11 1008.1 - 0.0 - - 10 - - - -
24/01:00pm 33.6 ENE 8 14 1008.5 - 0.0 - - 10 - - - -
24/12:30pm 33.5 ENE 10 15 1009.2 - 0.0 - - 10 - - - -
24/12:00pm 33.0 ESE 8 11 1009.7 - 0.0 - - 10 - - - -
24/11:30am 32.8 ESE 7 12 1010.1 - 0.0 - - 10 - - - -
24/11:00am 32.6 ESE 6 10 1010.7 - 0.0 - - 10 - - - -
24/10:30am 32.0 ENE 8 11 1011.0 - 0.0 - - 10 - - - -
24/10:00am 31.1 ENE 4 7 1011.2 - 0.0 - - 10 - - - -
24/09:30am 29.7 WNW 3 6 1011.3 - 0.0 - - 10 - - - -
24/09:00am 29.1 N 1 5 1011.2 - 0.0 - - 10 - - - -
24/08:30am 27.7 NNE 4 7 1011.0 - 0.0 - - 10 - - - -
24/08:00am 25.8 CALM 0 3 1010.7 - 0.0 - - 10 - - - -

Other Formats:

Comma delimited format used in spreadsheet applications
http://www.bom.gov.au/fwo/IDD60701/IDD60701.94153.axf

JavaScript Object Notation format (JSON) in row-major order
http://www.bom.gov.au/fwo/IDD60701/IDD60701.94153.json